Hermann, Missouri
Current Conditions -  °F | °C
As of 10:35 AM on Friday 28 Nov 2014 (Local Time) from KFYG Reporting Station
Clear Clear  
Wind Chill: 38°   Ceiling: Unl
Heat Index: 45°   Visibility: 10mi
Dew Point: 30°   Wind: 15mph
Humidity: 57%   Direction: 190°S
Pressure: 30.1"   Gusts: 18mph
Location:  38.7°N, 91.44°W
Report Text: KFYG 281635Z AUTO 19013G16KT 10SM CLR 07/M01 A3010 RMK AO2
Loading
Personal Weather Stations






























Interactive Weather Map New forecast layout! Learn more

10-Day Weather Forecast

Advertisements
Track Severe Weather on mobile